Terminal Aerodrome Forecast
Issued by NWS

Home | Current Version | Previous Version | Text Only | Print | Product List | Glossary On
Versions: 1 2 3 4 5 6 7 8 9 10 11 12
000
FTUS45 KABQ 272300
TAFGUP
TAF
KGUP 272320Z 2800/2824 27010G18KT P6SM SKC
     FM280130 VRB04KT P6SM SKC
     FM281700 24008KT P6SM SKC
     FM281900 26012G22KT P6SM SKC=

USA.gov is the U.S. government's official web portal to all federal, state and local government web resources and services.